Time;durP1;ratioP1;P1;durP2;ratioP2;P2;SDS_P1;SDS_P2;PMS_P1;PMS_P2;Temp;Humidity;BMP_temperature;BMP_pressure;BME280_temperature;BME280_humidity;BME280_pressure;Samples;Min_cycle;Max_cycle;Signal;HPM_P1;HPM_P2
2023/10/07 00:01:45;;;;;;;4.07;3.67;;;;;;;;;;5074209;28;20375;-80
2023/10/07 00:04:13;;;;;;;5.60;4.37;;;;;;;;;;5073876;28;20402;-81
2023/10/07 00:06:39;;;;;;;4.00;3.60;;;;;;;;;;5074738;28;20916;-80
2023/10/07 00:09:10;;;;;;;4.30;3.90;;;;;;;;;;5074687;28;20526;-81
2023/10/07 00:11:36;;;;;;;4.30;3.90;;;;;;;;;;5074722;28;20394;-81
2023/10/07 00:14:02;;;;;;;4.30;3.90;;;;;;;;;;5074439;28;20392;-80
2023/10/07 00:16:29;;;;;;;4.03;3.67;;;;;;;;;;5074182;28;20416;-80
2023/10/07 00:18:55;;;;;;;4.28;3.67;;;;;;;;;;5068569;28;20854;-79
2023/10/07 00:21:26;;;;;;;4.93;3.97;;;;;;;;;;5074038;28;20916;-81
2023/10/07 00:23:53;;;;;;;4.97;3.90;;;;;;;;;;5070615;28;20375;-80
2023/10/07 00:26:19;;;;;;;3.95;3.55;;;;;;;;;;5070445;28;20390;-80
2023/10/07 00:28:54;;;;;;;5.03;4.18;;;;;;;;;;5074890;28;20469;-80
2023/10/07 00:31:27;;;;;;;4.57;4.07;;;;;;;;;;5074244;28;20849;-80
2023/10/07 00:34:02;;;;;;;4.88;3.78;;;;;;;;;;5074807;28;20455;-80
2023/10/07 00:38:59;;;;;;;4.10;3.80;;;;;;;;;;5074717;28;20832;-80
2023/10/07 00:41:36;;;;;;;5.05;3.83;;;;;;;;;;5075473;28;20857;-80
2023/10/07 00:44:16;;;;;;;4.00;3.60;;;;;;;;;;5071941;28;20380;-80
2023/10/07 00:46:44;;;;;;;4.07;3.67;;;;;;;;;;5074551;28;20380;-80
2023/10/07 00:49:20;;;;;;;4.40;4.00;;;;;;;;;;5073007;28;20380;-80
2023/10/07 00:51:46;;;;;;;4.90;3.95;;;;;;;;;;5074094;28;20376;-80
2023/10/07 00:54:18;;;;;;;3.97;3.58;;;;;;;;;;5074102;28;20399;-80
2023/10/07 00:57:03;;;;;;;4.15;3.63;;;;;;;;;;5074870;28;20375;-80
2023/10/07 00:59:29;;;;;;;4.30;3.60;;;;;;;;;;5073905;28;20895;-80
2023/10/07 01:01:57;;;;;;;4.25;3.60;;;;;;;;;;5074751;28;20387;-80
2023/10/07 01:04:24;;;;;;;4.55;3.80;;;;;;;;;;5074985;28;20376;-80
2023/10/07 01:07:00;;;;;;;3.95;3.55;;;;;;;;;;5075030;28;20790;-80
2023/10/07 01:09:28;;;;;;;4.68;3.63;;;;;;;;;;5071008;28;20391;-80
2023/10/07 01:11:57;;;;;;;4.13;3.72;;;;;;;;;;5076015;28;20394;-80
2023/10/07 01:14:27;;;;;;;4.07;3.67;;;;;;;;;;5075144;28;20427;-80
2023/10/07 01:16:53;;;;;;;4.05;3.65;;;;;;;;;;5075245;28;20379;-80
2023/10/07 01:19:27;;;;;;;5.03;3.78;;;;;;;;;;5073950;28;20403;-80
2023/10/07 01:22:09;;;;;;;3.90;3.50;;;;;;;;;;5072444;28;20379;-80
2023/10/07 01:27:17;;;;;;;3.88;3.58;;;;;;;;;;5073057;28;20409;-80
2023/10/07 01:29:43;;;;;;;4.78;3.70;;;;;;;;;;5073525;28;20388;-80
2023/10/07 01:32:16;;;;;;;4.32;3.60;;;;;;;;;;5073830;28;20398;-80
2023/10/07 01:34:47;;;;;;;4.35;3.50;;;;;;;;;;5074210;28;20470;-80
2023/10/07 01:37:15;;;;;;;4.82;3.65;;;;;;;;;;5074043;28;20388;-80
2023/10/07 01:39:41;;;;;;;4.32;3.67;;;;;;;;;;5073309;28;20402;-80
2023/10/07 01:42:22;;;;;;;4.43;3.70;;;;;;;;;;5073428;28;20379;-80
2023/10/07 01:44:54;;;;;;;4.95;3.58;;;;;;;;;;5074006;28;20387;-80
2023/10/07 01:47:24;;;;;;;4.35;3.35;;;;;;;;;;5073704;28;20783;-80
2023/10/07 01:49:54;;;;;;;3.20;2.90;;;;;;;;;;5073093;28;20372;-80
2023/10/07 01:52:24;;;;;;;4.28;3.70;;;;;;;;;;5073509;28;20391;-80
2023/10/07 01:54:52;;;;;;;4.10;3.67;;;;;;;;;;5074528;28;20382;-80
2023/10/07 01:57:19;;;;;;;5.37;3.67;;;;;;;;;;5075017;28;20375;-80
2023/10/07 01:59:45;;;;;;;4.78;3.70;;;;;;;;;;5070323;28;20533;-80
2023/10/07 02:02:13;;;;;;;4.28;3.53;;;;;;;;;;5061466;28;20383;-79
2023/10/07 02:04:39;;;;;;;4.25;3.85;;;;;;;;;;5064612;28;20737;-79
2023/10/07 02:07:05;;;;;;;4.03;3.60;;;;;;;;;;5059375;28;20409;-79
2023/10/07 02:09:40;;;;;;;3.63;3.30;;;;;;;;;;5069700;28;20395;-79
2023/10/07 02:12:10;;;;;;;4.03;3.63;;;;;;;;;;5074841;28;20418;-79
2023/10/07 02:14:37;;;;;;;4.77;3.70;;;;;;;;;;5076182;28;20382;-79
2023/10/07 02:17:03;;;;;;;4.15;3.75;;;;;;;;;;5076575;28;20371;-79
2023/10/07 02:19:29;;;;;;;4.75;3.63;;;;;;;;;;5077534;28;20392;-79
2023/10/07 02:22:07;;;;;;;3.95;3.50;;;;;;;;;;5058911;28;20392;-79
2023/10/07 02:24:34;;;;;;;3.67;3.38;;;;;;;;;;5077426;28;20841;-79
2023/10/07 02:27:00;;;;;;;3.50;3.20;;;;;;;;;;5076909;28;20453;-79
2023/10/07 02:29:28;;;;;;;3.87;3.43;;;;;;;;;;5077423;28;20725;-80
2023/10/07 02:32:05;;;;;;;4.05;3.33;;;;;;;;;;5077346;28;20372;-79
2023/10/07 02:34:33;;;;;;;3.50;3.20;;;;;;;;;;5077072;28;20520;-79
2023/10/07 02:37:17;;;;;;;3.80;3.40;;;;;;;;;;5076902;28;20387;-79
2023/10/07 02:39:46;;;;;;;3.75;3.30;;;;;;;;;;5076836;28;20464;-80
2023/10/07 02:42:21;;;;;;;5.30;3.50;;;;;;;;;;5063559;28;20456;-79
2023/10/07 02:47:40;;;;;;;4.60;3.58;;;;;;;;;;5077073;28;20584;-79
2023/10/07 02:50:08;;;;;;;3.97;3.47;;;;;;;;;;5077471;28;20427;-80
2023/10/07 02:52:38;;;;;;;3.50;3.20;;;;;;;;;;5077772;28;20395;-81
2023/10/07 02:57:55;;;;;;;4.18;3.70;;;;;;;;;;5077096;28;20388;-80
2023/10/07 03:00:49;;;;;;;4.78;3.65;;;;;;;;;;5076221;28;20402;-81
2023/10/07 03:05:58;;;;;;;3.55;3.25;;;;;;;;;;5076480;28;20388;-80
2023/10/07 03:08:31;;;;;;;3.75;3.33;;;;;;;;;;5077902;28;20419;-81
2023/10/07 03:11:04;;;;;;;4.20;3.60;;;;;;;;;;5076358;28;20864;-79
2023/10/07 03:13:30;;;;;;;3.90;3.47;;;;;;;;;;5076089;28;20388;-81
2023/10/07 03:18:45;;;;;;;3.70;3.40;;;;;;;;;;5076072;28;20382;-81
2023/10/07 03:21:11;;;;;;;4.97;3.42;;;;;;;;;;5073888;28;20372;-81
2023/10/07 03:23:58;;;;;;;4.25;3.65;;;;;;;;;;5077146;28;20384;-82
2023/10/07 03:26:24;;;;;;;3.67;3.33;;;;;;;;;;5076454;28;20388;-81
2023/10/07 03:28:54;;;;;;;3.50;3.20;;;;;;;;;;5065572;28;20412;-81
2023/10/07 03:31:29;;;;;;;3.97;3.53;;;;;;;;;;5073870;28;20925;-80
2023/10/07 03:33:58;;;;;;;4.07;3.50;;;;;;;;;;5074767;28;20376;-81
2023/10/07 03:36:31;;;;;;;3.60;3.13;;;;;;;;;;5073847;28;20853;-81
2023/10/07 03:39:11;;;;;;;4.03;3.33;;;;;;;;;;5071227;28;20708;-79
2023/10/07 03:41:51;;;;;;;4.38;3.30;;;;;;;;;;5075382;28;20486;-81
2023/10/07 03:44:18;;;;;;;3.72;3.40;;;;;;;;;;5074391;28;20384;-80
2023/10/07 03:46:47;;;;;;;3.88;3.50;;;;;;;;;;5075163;28;20391;-80
2023/10/07 03:49:15;;;;;;;3.75;3.30;;;;;;;;;;5074789;28;20384;-80
2023/10/07 03:51:41;;;;;;;3.97;3.25;;;;;;;;;;5066917;28;20424;-79
2023/10/07 03:54:11;;;;;;;3.28;2.97;;;;;;;;;;5073207;28;20392;-79
2023/10/07 03:56:38;;;;;;;3.70;3.20;;;;;;;;;;5074444;28;20715;-80
2023/10/07 03:59:05;;;;;;;3.30;3.00;;;;;;;;;;5074039;28;20834;-79
2023/10/07 04:01:32;;;;;;;4.18;3.45;;;;;;;;;;5055140;28;20392;-81
2023/10/07 04:04:01;;;;;;;3.45;3.13;;;;;;;;;;5074054;28;20402;-81
2023/10/07 04:06:30;;;;;;;3.45;3.10;;;;;;;;;;5074800;28;20376;-80
2023/10/07 04:09:05;;;;;;;3.85;3.40;;;;;;;;;;5074376;28;20423;-80
2023/10/07 04:11:32;;;;;;;4.00;3.42;;;;;;;;;;5074122;28;20368;-80
2023/10/07 04:13:59;;;;;;;4.78;3.40;;;;;;;;;;5073778;28;20411;-80
2023/10/07 04:16:27;;;;;;;3.83;3.13;;;;;;;;;;5074844;28;20384;-80
2023/10/07 04:19:42;;;;;;;4.13;3.47;;;;;;;;;;5074877;28;20383;-80
2023/10/07 04:21:40;;;;;;;4.13;3.25;;;;;;;;;;5063873;28;20388;-80
2023/10/07 04:24:10;;;;;;;3.90;3.17;;;;;;;;;;5074818;28;20745;-80
2023/10/07 04:26:39;;;;;;;4.73;3.73;;;;;;;;;;5067206;28;20377;-80
2023/10/07 04:29:14;;;;;;;4.30;3.47;;;;;;;;;;5070619;28;20409;-80
2023/10/07 04:31:53;;;;;;;3.40;3.10;;;;;;;;;;5064693;28;20380;-79
2023/10/07 04:34:20;;;;;;;3.65;3.35;;;;;;;;;;5073857;28;20367;-80
2023/10/07 04:42:35;;;;;;;3.75;3.22;;;;;;;;;;5028590;28;20386;-79
2023/10/07 04:45:17;;;;;;;4.32;3.25;;;;;;;;;;5065223;28;20408;-79
2023/10/07 04:47:46;;;;;;;4.07;3.47;;;;;;;;;;5069047;28;20507;-79
2023/10/07 04:52:42;;;;;;;4.70;3.63;;;;;;;;;;5074871;28;20368;-79
2023/10/07 04:55:13;;;;;;;3.70;3.10;;;;;;;;;;5075530;28;20464;-79
2023/10/07 05:00:34;;;;;;;4.05;3.47;;;;;;;;;;5074635;28;20471;-80
2023/10/07 05:03:19;;;;;;;5.18;3.72;;;;;;;;;;5074572;28;20387;-79
2023/10/07 05:05:45;;;;;;;3.92;3.53;;;;;;;;;;5073743;28;20388;-80
2023/10/07 05:08:11;;;;;;;4.78;3.45;;;;;;;;;;5073602;28;20503;-80
2023/10/07 05:10:43;;;;;;;3.80;3.40;;;;;;;;;;5074321;28;20450;-81
2023/10/07 05:13:10;;;;;;;4.03;3.33;;;;;;;;;;5069464;28;20403;-80
2023/10/07 05:15:38;;;;;;;4.13;3.60;;;;;;;;;;5074144;28;20384;-80
2023/10/07 05:18:05;;;;;;;4.30;3.47;;;;;;;;;;5074245;28;20788;-80
2023/10/07 05:20:32;;;;;;;3.97;3.55;;;;;;;;;;5074526;28;20384;-81
2023/10/07 05:23:02;;;;;;;4.75;4.00;;;;;;;;;;5074226;28;20434;-80
2023/10/07 05:25:32;;;;;;;3.80;3.47;;;;;;;;;;5074157;28;20845;-81
2023/10/07 05:27:58;;;;;;;4.70;3.80;;;;;;;;;;5055502;28;20769;-80
2023/10/07 05:30:24;;;;;;;5.35;3.65;;;;;;;;;;5073385;28;20384;-80
2023/10/07 05:32:50;;;;;;;4.00;3.60;;;;;;;;;;5073689;28;20380;-80
2023/10/07 05:35:18;;;;;;;4.10;3.65;;;;;;;;;;5074553;28;20436;-80
2023/10/07 05:37:44;;;;;;;5.17;3.90;;;;;;;;;;5074291;28;20398;-80
2023/10/07 05:40:13;;;;;;;3.78;3.38;;;;;;;;;;5073809;28;20371;-80
2023/10/07 05:42:40;;;;;;;4.28;3.88;;;;;;;;;;5074287;28;20418;-81
2023/10/07 05:45:07;;;;;;;4.57;3.90;;;;;;;;;;5074316;28;20864;-81
2023/10/07 05:47:33;;;;;;;4.37;3.70;;;;;;;;;;5074327;28;20404;-80
2023/10/07 05:50:00;;;;;;;5.03;4.03;;;;;;;;;;5074418;28;20427;-80
2023/10/07 05:52:26;;;;;;;5.22;3.97;;;;;;;;;;5074890;28;20710;-80
2023/10/07 05:54:56;;;;;;;3.80;3.50;;;;;;;;;;5074593;28;20410;-80
2023/10/07 05:57:22;;;;;;;4.07;3.67;;;;;;;;;;5073899;28;20441;-80
2023/10/07 05:59:50;;;;;;;4.07;3.67;;;;;;;;;;5074285;28;20388;-80
2023/10/07 06:02:17;;;;;;;4.20;3.80;;;;;;;;;;5074390;28;20372;-80
2023/10/07 06:04:44;;;;;;;3.83;3.45;;;;;;;;;;5073887;28;20522;-80
2023/10/07 06:07:12;;;;;;;4.70;3.65;;;;;;;;;;5073892;28;20419;-80
2023/10/07 06:09:41;;;;;;;4.53;4.13;;;;;;;;;;5074161;28;20379;-80
2023/10/07 06:12:09;;;;;;;5.95;5.45;;;;;;;;;;5074549;28;20380;-80
2023/10/07 06:14:35;;;;;;;5.75;4.35;;;;;;;;;;5073412;28;20419;-81
2023/10/07 06:17:01;;;;;;;4.28;3.67;;;;;;;;;;5074526;28;20383;-81
2023/10/07 06:19:27;;;;;;;4.53;3.63;;;;;;;;;;5073807;28;20758;-81
2023/10/07 06:21:56;;;;;;;4.28;3.75;;;;;;;;;;5074845;28;20457;-81
2023/10/07 06:24:25;;;;;;;4.07;3.67;;;;;;;;;;5074419;28;20451;-81
2023/10/07 06:26:54;;;;;;;4.93;3.80;;;;;;;;;;5067767;28;20480;-79
2023/10/07 06:29:20;;;;;;;4.60;3.40;;;;;;;;;;5073216;28;20387;-80
2023/10/07 06:32:12;;;;;;;4.35;3.95;;;;;;;;;;5073663;28;20383;-79
2023/10/07 06:34:41;;;;;;;4.07;3.67;;;;;;;;;;5057779;28;20373;-79
2023/10/07 06:37:07;;;;;;;4.75;3.92;;;;;;;;;;5069804;28;20383;-79
2023/10/07 06:39:33;;;;;;;5.10;4.30;;;;;;;;;;5070478;28;20441;-80
2023/10/07 06:41:59;;;;;;;6.03;5.45;;;;;;;;;;5070630;28;20384;-80
2023/10/07 06:44:30;;;;;;;4.45;4.05;;;;;;;;;;5072411;28;20415;-80
2023/10/07 06:47:02;;;;;;;4.35;3.95;;;;;;;;;;5065151;28;20380;-80
2023/10/07 06:49:34;;;;;;;5.10;4.50;;;;;;;;;;5073647;28;20452;-80
2023/10/07 06:52:03;;;;;;;5.20;4.70;;;;;;;;;;5073683;28;20387;-80
2023/10/07 06:54:32;;;;;;;5.47;4.60;;;;;;;;;;5071833;28;20486;-80
2023/10/07 06:56:58;;;;;;;5.10;4.60;;;;;;;;;;5074117;28;20372;-80
2023/10/07 06:59:28;;;;;;;5.50;4.72;;;;;;;;;;5077187;28;20394;-80
2023/10/07 07:02:05;;;;;;;5.85;4.75;;;;;;;;;;5076896;28;20472;-80
2023/10/07 07:04:31;;;;;;;4.90;4.50;;;;;;;;;;5074156;28;20433;-80
2023/10/07 07:06:58;;;;;;;5.45;4.18;;;;;;;;;;5077090;28;20387;-80
2023/10/07 07:12:29;;;;;;;4.93;4.43;;;;;;;;;;5019409;28;20418;-80
2023/10/07 07:15:28;;;;;;;4.53;4.10;;;;;;;;;;5015431;28;20957;-80
2023/10/07 07:17:47;;;;;;;5.70;4.30;;;;;;;;;;5011845;28;20389;-80
2023/10/07 07:22:42;;;;;;;5.67;4.57;;;;;;;;;;5014033;28;20397;-79
2023/10/07 07:25:11;;;;;;;5.20;4.70;;;;;;;;;;5014448;28;20814;-80
2023/10/07 07:27:38;;;;;;;5.40;4.38;;;;;;;;;;5015020;28;20456;-81
2023/10/07 07:30:05;;;;;;;5.60;5.00;;;;;;;;;;5015710;28;20420;-80
2023/10/07 07:32:35;;;;;;;6.00;5.40;;;;;;;;;;5014681;28;20700;-79
2023/10/07 07:35:04;;;;;;;6.22;5.43;;;;;;;;;;5014046;28;20392;-80
2023/10/07 07:37:34;;;;;;;6.28;4.85;;;;;;;;;;5014033;28;20392;-80
2023/10/07 07:40:09;;;;;;;8.15;6.05;;;;;;;;;;5014167;28;20728;-80
2023/10/07 07:42:35;;;;;;;6.22;5.63;;;;;;;;;;5029515;28;20842;-80
2023/10/07 07:45:01;;;;;;;6.57;5.88;;;;;;;;;;5076110;28;20439;-80
2023/10/07 07:47:31;;;;;;;7.43;6.43;;;;;;;;;;5076372;28;20442;-80
2023/10/07 07:50:07;;;;;;;5.70;5.20;;;;;;;;;;5075946;28;20379;-80
2023/10/07 07:52:33;;;;;;;6.97;6.38;;;;;;;;;;5075556;28;20384;-80
2023/10/07 07:54:59;;;;;;;8.55;7.15;;;;;;;;;;5075949;28;20383;-79
2023/10/07 07:57:25;;;;;;;8.15;6.72;;;;;;;;;;5075686;28;20737;-80
2023/10/07 07:59:51;;;;;;;7.82;7.03;;;;;;;;;;5075740;28;20372;-79
2023/10/07 08:02:17;;;;;;;8.75;6.90;;;;;;;;;;5075911;28;20384;-80
2023/10/07 08:04:50;;;;;;;10.70;8.60;;;;;;;;;;5075854;28;20480;-80
2023/10/07 08:07:24;;;;;;;14.07;9.50;;;;;;;;;;5074745;28;20423;-80
2023/10/07 08:09:58;;;;;;;12.50;8.95;;;;;;;;;;5075770;28;20705;-80
2023/10/07 08:12:28;;;;;;;12.03;10.00;;;;;;;;;;5075926;28;20571;-80
2023/10/07 08:15:09;;;;;;;12.93;9.77;;;;;;;;;;5072344;28;20415;-81
2023/10/07 08:17:37;;;;;;;14.10;10.35;;;;;;;;;;5063653;28;20411;-80
2023/10/07 08:20:13;;;;;;;19.40;11.82;;;;;;;;;;5076206;28;20399;-81
2023/10/07 08:22:45;;;;;;;14.95;10.65;;;;;;;;;;5075930;28;20384;-80
2023/10/07 08:25:37;;;;;;;15.93;11.00;;;;;;;;;;5076017;28;20455;-80
2023/10/07 08:28:38;;;;;;;12.85;10.20;;;;;;;;;;5058543;28;20445;-84
2023/10/07 08:30:50;;;;;;;12.18;10.05;;;;;;;;;;5077477;28;20403;-82
2023/10/07 08:33:22;;;;;;;12.07;9.90;;;;;;;;;;5076031;28;20483;-83
2023/10/07 08:35:49;;;;;;;10.17;9.00;;;;;;;;;;5076754;28;20460;-79
2023/10/07 08:38:37;;;;;;;9.75;8.85;;;;;;;;;;5075165;28;20387;-80
2023/10/07 08:41:04;;;;;;;11.63;9.48;;;;;;;;;;5074104;28;20372;-80
2023/10/07 08:43:37;;;;;;;10.73;9.70;;;;;;;;;;5075379;28;20392;-80
2023/10/07 08:46:08;;;;;;;10.23;9.18;;;;;;;;;;5075653;28;20440;-80
2023/10/07 08:48:38;;;;;;;12.60;10.90;;;;;;;;;;5075912;28;20415;-80
2023/10/07 08:51:10;;;;;;;14.25;10.55;;;;;;;;;;5057430;28;20395;-80
2023/10/07 08:53:37;;;;;;;11.88;10.55;;;;;;;;;;5075444;28;20380;-80
2023/10/07 08:56:17;;;;;;;13.93;11.23;;;;;;;;;;5067418;28;20535;-81
2023/10/07 08:58:44;;;;;;;10.45;9.52;;;;;;;;;;5076468;28;20379;-82
2023/10/07 09:01:19;;;;;;;12.95;11.50;;;;;;;;;;5075689;28;20386;-82
2023/10/07 09:03:56;;;;;;;11.32;10.23;;;;;;;;;;5075841;28;20384;-81
2023/10/07 09:06:33;;;;;;;10.88;9.88;;;;;;;;;;5074977;28;20408;-82
2023/10/07 09:09:10;;;;;;;12.43;11.13;;;;;;;;;;5075825;28;20411;-81
2023/10/07 09:11:37;;;;;;;13.55;10.95;;;;;;;;;;5075037;28;20922;-81
2023/10/07 09:14:07;;;;;;;12.40;9.98;;;;;;;;;;5072954;28;20385;-82
2023/10/07 09:16:33;;;;;;;10.73;9.57;;;;;;;;;;5076181;28;20441;-82
2023/10/07 09:18:59;;;;;;;11.45;10.07;;;;;;;;;;5076487;28;20746;-82
2023/10/07 09:21:33;;;;;;;9.70;8.73;;;;;;;;;;5075785;28;20386;-82
2023/10/07 09:24:00;;;;;;;9.88;8.88;;;;;;;;;;5061991;28;20418;-82
2023/10/07 09:26:37;;;;;;;9.85;8.85;;;;;;;;;;5056701;28;20474;-82
2023/10/07 09:29:21;;;;;;;9.27;8.25;;;;;;;;;;5075471;28;20419;-82
2023/10/07 09:32:04;;;;;;;9.07;7.72;;;;;;;;;;5075763;28;20436;-83
2023/10/07 09:34:44;;;;;;;8.57;7.68;;;;;;;;;;5075201;28;20384;-80
2023/10/07 09:37:13;;;;;;;8.43;7.50;;;;;;;;;;5075670;28;20388;-81
2023/10/07 09:39:44;;;;;;;8.27;7.35;;;;;;;;;;5074178;28;20387;-80
2023/10/07 09:42:27;;;;;;;9.68;7.78;;;;;;;;;;5075482;28;20388;-81
2023/10/07 09:45:39;;;;;;;7.35;6.65;;;;;;;;;;5069321;28;20371;-80
2023/10/07 09:47:46;;;;;;;6.88;6.22;;;;;;;;;;5063335;28;20492;-81
2023/10/07 09:50:19;;;;;;;7.45;6.70;;;;;;;;;;5075189;28;20395;-79
2023/10/07 09:52:52;;;;;;;7.15;6.45;;;;;;;;;;5075887;28;20437;-80
2023/10/07 09:55:30;;;;;;;7.20;6.50;;;;;;;;;;5075600;28;20404;-80
2023/10/07 09:58:00;;;;;;;7.40;6.27;;;;;;;;;;5074732;28;20437;-81
2023/10/07 10:00:43;;;;;;;7.30;6.18;;;;;;;;;;5057370;28;20395;-81
2023/10/07 10:03:12;;;;;;;11.68;6.45;;;;;;;;;;5065492;28;20390;-81
2023/10/07 10:05:38;;;;;;;6.82;6.13;;;;;;;;;;5073293;28;20774;-82
2023/10/07 10:08:11;;;;;;;6.80;5.68;;;;;;;;;;5057803;28;20458;-81
2023/10/07 10:10:44;;;;;;;11.82;6.32;;;;;;;;;;5076691;28;20414;-81
2023/10/07 10:13:28;;;;;;;7.60;5.75;;;;;;;;;;5077796;28;20395;-82
2023/10/07 10:15:59;;;;;;;6.60;5.30;;;;;;;;;;5077487;28;20399;-82
2023/10/07 10:18:38;;;;;;;6.22;5.35;;;;;;;;;;5076438;28;20399;-82
2023/10/07 10:21:05;;;;;;;7.47;5.20;;;;;;;;;;5057562;28;20388;-81
2023/10/07 10:23:37;;;;;;;6.73;5.30;;;;;;;;;;5076929;28;20467;-81
2023/10/07 10:26:27;;;;;;;20.10;5.93;;;;;;;;;;5077380;28;20375;-84
2023/10/07 10:29:00;;;;;;;15.45;5.65;;;;;;;;;;5075986;28;20915;-82
2023/10/07 10:31:33;;;;;;;6.30;5.70;;;;;;;;;;5077333;28;20380;-82
2023/10/07 10:34:05;;;;;;;6.03;5.43;;;;;;;;;;5079865;28;20391;-82
2023/10/07 10:36:32;;;;;;;5.80;5.30;;;;;;;;;;5079645;28;20375;-81
2023/10/07 10:39:00;;;;;;;5.28;4.72;;;;;;;;;;5078869;28;20406;-80
2023/10/07 10:41:29;;;;;;;5.55;4.90;;;;;;;;;;5079144;28;20413;-80
2023/10/07 10:44:11;;;;;;;6.00;4.93;;;;;;;;;;5079560;28;20376;-82
2023/10/07 10:46:44;;;;;;;7.00;4.75;;;;;;;;;;5071150;28;20430;-81
2023/10/07 10:49:16;;;;;;;4.93;4.30;;;;;;;;;;5079770;28;20480;-80
2023/10/07 10:51:46;;;;;;;6.57;4.50;;;;;;;;;;5079507;28;20475;-81
2023/10/07 10:54:19;;;;;;;7.10;4.22;;;;;;;;;;5078386;28;20395;-82
2023/10/07 10:56:55;;;;;;;5.28;4.43;;;;;;;;;;5078316;28;20753;-81
2023/10/07 10:59:22;;;;;;;7.07;5.07;;;;;;;;;;5077705;28;20375;-81
2023/10/07 11:01:52;;;;;;;7.75;4.72;;;;;;;;;;5077817;28;20384;-80
2023/10/07 11:04:21;;;;;;;7.03;4.70;;;;;;;;;;5077643;28;20388;-81
2023/10/07 11:06:51;;;;;;;4.97;4.20;;;;;;;;;;5078383;28;20509;-81
2023/10/07 11:09:26;;;;;;;4.93;4.43;;;;;;;;;;5078246;28;20865;-79
2023/10/07 11:11:55;;;;;;;5.57;4.78;;;;;;;;;;5080080;28;20384;-81
2023/10/07 11:14:23;;;;;;;4.97;4.07;;;;;;;;;;5078782;28;20379;-82
2023/10/07 11:16:50;;;;;;;5.45;4.22;;;;;;;;;;5078922;28;20470;-81
2023/10/07 11:19:16;;;;;;;5.78;4.28;;;;;;;;;;5079234;28;20384;-82
2023/10/07 11:21:49;;;;;;;7.43;4.43;;;;;;;;;;5080834;28;20471;-81
2023/10/07 11:24:27;;;;;;;5.38;4.03;;;;;;;;;;5079766;28;20470;-80
2023/10/07 11:26:59;;;;;;;4.10;3.50;;;;;;;;;;5075238;28;20368;-82
2023/10/07 11:29:29;;;;;;;4.80;3.67;;;;;;;;;;5079218;28;20403;-82
2023/10/07 11:32:03;;;;;;;4.88;3.38;;;;;;;;;;5073850;28;20869;-81
2023/10/07 11:34:36;;;;;;;4.90;3.60;;;;;;;;;;5079671;28;20395;-82
2023/10/07 11:37:10;;;;;;;4.00;3.53;;;;;;;;;;5074745;28;20926;-82
2023/10/07 11:39:43;;;;;;;4.20;3.50;;;;;;;;;;5079405;28;20376;-82
2023/10/07 11:42:09;;;;;;;4.30;3.50;;;;;;;;;;5074322;28;20416;-82
2023/10/07 11:44:36;;;;;;;4.85;3.75;;;;;;;;;;5079030;28;20379;-83
2023/10/07 11:47:02;;;;;;;4.55;3.15;;;;;;;;;;5078984;28;20360;-83
2023/10/07 11:49:28;;;;;;;4.18;3.33;;;;;;;;;;5079215;28;20455;-83
2023/10/07 11:51:54;;;;;;;4.13;3.33;;;;;;;;;;5078195;28;20364;-82
2023/10/07 11:54:24;;;;;;;6.80;3.20;;;;;;;;;;5077919;28;20376;-79
2023/10/07 11:56:50;;;;;;;4.80;3.00;;;;;;;;;;5073860;28;20482;-79
2023/10/07 11:59:16;;;;;;;4.80;3.17;;;;;;;;;;5076233;28;20726;-81
2023/10/07 12:01:42;;;;;;;4.63;3.10;;;;;;;;;;5071170;28;20388;-81
2023/10/07 12:04:08;;;;;;;4.57;2.88;;;;;;;;;;5075645;28;20380;-81
2023/10/07 12:06:34;;;;;;;5.40;3.00;;;;;;;;;;5076868;28;20550;-80
2023/10/07 12:09:06;;;;;;;6.60;2.72;;;;;;;;;;5076756;28;20820;-80
2023/10/07 12:11:32;;;;;;;5.22;3.20;;;;;;;;;;5077471;28;20437;-81
2023/10/07 12:13:58;;;;;;;4.33;2.43;;;;;;;;;;5076820;28;20778;-81
2023/10/07 12:16:25;;;;;;;2.83;2.53;;;;;;;;;;5076691;28;20433;-82
2023/10/07 12:18:51;;;;;;;3.53;2.57;;;;;;;;;;5076423;28;20841;-80
2023/10/07 12:21:17;;;;;;;3.60;2.58;;;;;;;;;;5077087;28;20395;-80
2023/10/07 12:23:44;;;;;;;3.35;2.80;;;;;;;;;;5077631;28;20489;-81
2023/10/07 12:26:13;;;;;;;3.17;2.70;;;;;;;;;;5078419;28;20391;-81
2023/10/07 12:28:39;;;;;;;4.05;2.80;;;;;;;;;;5077969;28;20493;-81
2023/10/07 12:31:10;;;;;;;3.13;2.40;;;;;;;;;;5077746;28;20384;-81
2023/10/07 12:33:36;;;;;;;5.00;3.00;;;;;;;;;;5077684;28;20380;-81
2023/10/07 12:36:09;;;;;;;4.32;2.85;;;;;;;;;;5078699;28;20861;-81
2023/10/07 12:38:35;;;;;;;3.10;2.80;;;;;;;;;;5058946;28;20387;-81
2023/10/07 12:41:01;;;;;;;4.25;2.70;;;;;;;;;;5077553;28;20386;-81
2023/10/07 12:43:27;;;;;;;3.17;2.60;;;;;;;;;;5077772;28;20422;-81
2023/10/07 12:45:53;;;;;;;3.88;2.20;;;;;;;;;;5077309;28;20462;-81
2023/10/07 12:48:19;;;;;;;3.47;2.25;;;;;;;;;;5078063;28;20419;-80
2023/10/07 12:50:45;;;;;;;3.28;2.42;;;;;;;;;;5077539;28;20378;-81
2023/10/07 12:53:13;;;;;;;4.93;2.60;;;;;;;;;;5076296;28;20426;-80
2023/10/07 12:55:39;;;;;;;3.90;2.70;;;;;;;;;;5076418;28;20391;-80
2023/10/07 12:58:15;;;;;;;4.32;2.75;;;;;;;;;;5076581;28;20376;-80
2023/10/07 13:00:42;;;;;;;2.92;2.63;;;;;;;;;;5075518;28;20462;-80
2023/10/07 13:03:08;;;;;;;4.22;2.58;;;;;;;;;;5072392;28;20393;-80
2023/10/07 13:05:37;;;;;;;2.65;2.25;;;;;;;;;;5072994;28;20387;-80
2023/10/07 13:08:08;;;;;;;4.25;2.70;;;;;;;;;;5075485;28;20447;-80
2023/10/07 13:10:35;;;;;;;3.22;2.80;;;;;;;;;;5076853;28;20386;-80
2023/10/07 13:13:04;;;;;;;3.22;2.70;;;;;;;;;;5075649;28;20392;-80
2023/10/07 13:15:36;;;;;;;3.97;2.63;;;;;;;;;;5075360;28;20428;-80
2023/10/07 13:18:02;;;;;;;2.58;2.35;;;;;;;;;;5076051;28;20384;-80
2023/10/07 13:20:28;;;;;;;4.13;2.38;;;;;;;;;;5075540;28;20734;-79
2023/10/07 13:22:55;;;;;;;3.63;2.78;;;;;;;;;;5076498;28;20503;-80
2023/10/07 13:25:22;;;;;;;3.35;2.60;;;;;;;;;;5075475;28;20706;-81
2023/10/07 13:27:48;;;;;;;3.42;2.50;;;;;;;;;;5076974;28;20421;-81
2023/10/07 13:30:16;;;;;;;3.77;2.63;;;;;;;;;;5076942;28;20451;-80
2023/10/07 13:32:43;;;;;;;3.25;2.47;;;;;;;;;;5075561;28;20387;-81
2023/10/07 13:35:09;;;;;;;3.55;2.63;;;;;;;;;;5076429;28;20527;-80
2023/10/07 13:37:37;;;;;;;4.05;2.97;;;;;;;;;;5076391;28;20415;-80
2023/10/07 13:40:07;;;;;;;3.38;2.60;;;;;;;;;;5075257;28;20383;-80
2023/10/07 13:42:35;;;;;;;4.05;3.00;;;;;;;;;;5074877;28;20466;-81
2023/10/07 13:45:08;;;;;;;3.42;2.78;;;;;;;;;;5074572;28;20380;-79
2023/10/07 13:47:35;;;;;;;4.97;2.70;;;;;;;;;;5074443;28;20407;-78
2023/10/07 13:50:02;;;;;;;4.10;2.70;;;;;;;;;;5074755;28;20453;-79
2023/10/07 13:52:36;;;;;;;3.05;2.55;;;;;;;;;;5075378;28;20462;-78
2023/10/07 13:55:22;;;;;;;3.50;2.60;;;;;;;;;;5074851;28;20388;-80
2023/10/07 13:57:48;;;;;;;3.43;2.30;;;;;;;;;;5074831;28;20395;-80
2023/10/07 14:00:36;;;;;;;4.43;2.60;;;;;;;;;;5074940;28;20486;-81
2023/10/07 14:03:16;;;;;;;3.30;3.00;;;;;;;;;;5074887;28;20387;-80
2023/10/07 14:05:48;;;;;;;3.30;2.47;;;;;;;;;;5070900;28;20429;-80
2023/10/07 14:08:17;;;;;;;3.63;2.40;;;;;;;;;;5076794;28;20916;-80
2023/10/07 14:10:55;;;;;;;3.20;2.60;;;;;;;;;;5077567;28;20403;-79
2023/10/07 14:13:26;;;;;;;3.70;2.40;;;;;;;;;;5077333;28;20383;-79
2023/10/07 14:15:52;;;;;;;4.18;2.70;;;;;;;;;;5077655;28;20384;-80
2023/10/07 14:18:21;;;;;;;3.63;2.80;;;;;;;;;;5078210;28;20383;-79
2023/10/07 14:20:52;;;;;;;3.65;2.97;;;;;;;;;;5078255;28;20713;-79
2023/10/07 14:23:18;;;;;;;4.18;2.92;;;;;;;;;;5077972;28;20395;-79
2023/10/07 14:25:47;;;;;;;4.15;2.50;;;;;;;;;;5077753;28;20384;-79
2023/10/07 14:28:13;;;;;;;4.20;2.85;;;;;;;;;;5077939;28;20473;-80
2023/10/07 14:30:39;;;;;;;3.33;2.60;;;;;;;;;;5078108;28;20392;-79
2023/10/07 14:33:05;;;;;;;4.60;2.70;;;;;;;;;;5077663;28;20384;-79
2023/10/07 14:35:36;;;;;;;3.40;2.33;;;;;;;;;;5076256;28;20404;-79
2023/10/07 14:38:02;;;;;;;2.78;2.50;;;;;;;;;;5077853;28;20407;-79
2023/10/07 14:40:28;;;;;;;3.60;2.40;;;;;;;;;;5077847;28;20414;-79
2023/10/07 14:42:55;;;;;;;3.38;2.47;;;;;;;;;;5077247;28;20375;-79
2023/10/07 14:45:23;;;;;;;2.70;2.38;;;;;;;;;;5078049;28;20384;-80
2023/10/07 14:47:49;;;;;;;3.95;2.50;;;;;;;;;;5063418;28;20431;-81
2023/10/07 14:50:15;;;;;;;3.00;2.47;;;;;;;;;;5069477;28;20423;-81
2023/10/07 14:52:42;;;;;;;3.47;2.30;;;;;;;;;;5077745;28;20376;-81
2023/10/07 14:55:08;;;;;;;2.80;2.53;;;;;;;;;;5078817;28;20371;-81
2023/10/07 14:57:34;;;;;;;2.80;2.50;;;;;;;;;;5080543;28;20439;-81
2023/10/07 15:00:00;;;;;;;4.30;2.50;;;;;;;;;;5079536;28;20844;-80
2023/10/07 15:02:28;;;;;;;3.25;2.70;;;;;;;;;;5078130;28;20461;-80
2023/10/07 15:04:54;;;;;;;4.03;2.70;;;;;;;;;;5080872;28;20463;-80
2023/10/07 15:07:20;;;;;;;3.60;2.50;;;;;;;;;;5081590;28;20414;-81
2023/10/07 15:09:48;;;;;;;3.15;2.70;;;;;;;;;;5082639;28;20865;-82
2023/10/07 15:12:16;;;;;;;3.35;2.67;;;;;;;;;;5076764;28;20467;-83
2023/10/07 15:14:42;;;;;;;3.08;2.33;;;;;;;;;;5080179;28;20383;-82
2023/10/07 15:17:09;;;;;;;3.77;2.50;;;;;;;;;;5080769;28;20387;-82
2023/10/07 15:19:36;;;;;;;3.00;2.13;;;;;;;;;;5079259;28;20398;-81
2023/10/07 15:22:05;;;;;;;3.83;2.40;;;;;;;;;;5081254;28;20714;-83
2023/10/07 15:24:31;;;;;;;2.97;2.15;;;;;;;;;;5082405;28;20765;-83
2023/10/07 15:26:57;;;;;;;3.58;2.40;;;;;;;;;;5084114;28;20388;-82
2023/10/07 15:29:24;;;;;;;3.72;2.30;;;;;;;;;;5076046;28;20484;-82
2023/10/07 15:31:50;;;;;;;3.42;2.30;;;;;;;;;;5088228;28;20721;-82